Hermansville, Michigan
Current Conditions -  °F | °C
As of 3:15 AM on Friday 19 Dec 2014 (Local Time) from KESC Reporting Station
Clear Clear  
Wind Chill: 10°   Ceiling: Unl
Heat Index: 10°   Visibility: 10mi
Dew Point:   Wind: 3mph
Humidity: 85%   Direction: 310°NW
Pressure: 30.26"   Gusts: NA
Location:  45.71°N, 87.6°W
Report Text: KESC 190915Z AUTO 31003KT 10SM CLR M12/M14 A3026 RMK AO1
Loading
Personal Weather Stations






























Interactive Weather Map New forecast layout! Learn more

10-Day Weather Forecast

Advertisements
Track Severe Weather on mobile